Time;durP1;ratioP1;P1;durP2;ratioP2;P2;SDS_P1;SDS_P2;PMS_P1;PMS_P2;Temp;Humidity;BMP_temperature;BMP_pressure;BME280_temperature;BME280_humidity;BME280_pressure;Samples;Min_cycle;Max_cycle;Signal;HPM_P1;HPM_P2
2021/07/09 00:02:16;;;;;;;7.57;6.90;;;15.30;99.90;;;;;;6078851;23;21012;-88
2021/07/09 00:04:43;;;;;;;8.77;7.03;;;15.30;99.90;;;;;;6078689;23;20421;-86
2021/07/09 00:07:10;;;;;;;9.37;8.57;;;15.30;99.90;;;;;;6079019;23;20477;-86
2021/07/09 00:09:38;;;;;;;9.73;8.87;;;15.40;99.90;;;;;;6078964;23;20448;-87
2021/07/09 00:12:05;;;;;;;8.83;7.70;;;15.40;99.90;;;;;;6079780;23;21045;-86
2021/07/09 00:14:36;;;;;;;9.30;8.50;;;15.40;99.90;;;;;;6079578;23;20405;-87
2021/07/09 00:17:03;;;;;;;8.80;7.90;;;15.50;99.90;;;;;;6080167;23;20442;-87
2021/07/09 00:19:30;;;;;;;8.30;7.50;;;15.50;99.90;;;;;;6078658;23;21001;-86
2021/07/09 00:21:59;;;;;;;8.73;8.00;;;15.60;99.90;;;;;;6079567;23;20449;-86
2021/07/09 00:24:27;;;;;;;8.90;8.07;;;15.60;99.90;;;;;;6080423;23;20473;-86
2021/07/09 00:26:55;;;;;;;8.90;8.00;;;15.60;99.90;;;;;;6080606;23;20408;-86
2021/07/09 00:29:22;;;;;;;8.93;8.23;;;15.60;99.90;;;;;;6080789;23;20436;-86
2021/07/09 00:32:20;;;;;;;;;;;;;;;;;;;;;
2021/07/09 00:35:13;;;;;;;;;;;;;;;;;;;;;
2021/07/09 00:37:49;;;;;;;6.97;6.47;;;15.60;99.90;;;;;;6052984;23;20414;-85
2021/07/09 00:40:25;;;;;;;9.00;8.13;;;15.60;99.90;;;;;;6094340;23;20413;-86
2021/07/09 00:43:06;;;;;;;9.07;8.17;;;15.60;99.90;;;;;;6086810;23;20458;-86
2021/07/09 00:45:40;;;;;;;9.30;8.37;;;15.60;99.90;;;;;;6081762;23;20504;-86
2021/07/09 00:48:54;;;;;;;8.23;7.43;;;15.50;99.90;;;;;;6081629;23;20481;-86
2021/07/09 00:51:24;;;;;;;8.67;7.97;;;15.50;99.90;;;;;;5978037;23;20425;-87
2021/07/09 00:53:51;;;;;;;9.10;8.37;;;15.40;99.90;;;;;;6081045;23;20469;-87
2021/07/09 00:56:32;;;;;;;9.20;8.50;;;15.40;99.90;;;;;;6081344;23;20398;-87
2021/07/09 00:59:04;;;;;;;10.13;9.20;;;15.30;99.90;;;;;;6081670;23;20472;-87
2021/07/09 01:01:47;;;;;;;10.33;9.53;;;15.30;99.90;;;;;;6082305;23;20414;-87
2021/07/09 01:04:33;;;;;;;9.60;7.90;;;15.30;99.90;;;;;;6076909;23;20425;-87
2021/07/09 01:07:19;;;;;;;8.60;7.90;;;15.30;99.90;;;;;;6081337;23;20429;-86
2021/07/09 01:10:00;;;;;;;7.93;7.30;;;15.20;99.90;;;;;;6079688;23;20423;-87
2021/07/09 01:12:42;;;;;;;;;;;;;;;;;;;;;
2021/07/09 01:15:17;;;;;;;9.50;8.10;;;15.20;99.90;;;;;;6079951;23;20811;-87
2021/07/09 01:17:44;;;;;;;9.30;8.50;;;15.20;99.90;;;;;;6081010;23;20419;-87
2021/07/09 01:20:13;;;;;;;9.20;8.50;;;15.20;99.90;;;;;;6081400;23;20425;-87
2021/07/09 01:22:43;;;;;;;10.50;9.60;;;15.20;99.90;;;;;;6080469;23;20506;-86
2021/07/09 01:25:15;;;;;;;9.47;8.57;;;15.20;99.90;;;;;;6080171;23;20414;-86
2021/07/09 01:27:43;;;;;;;11.20;9.53;;;15.20;99.90;;;;;;6080638;23;20716;-86
2021/07/09 01:30:13;;;;;;;9.60;8.73;;;15.20;99.90;;;;;;6085239;23;20484;-86
2021/07/09 01:32:43;;;;;;;10.10;9.30;;;15.20;99.90;;;;;;6089332;23;20453;-85
2021/07/09 01:35:11;;;;;;;11.77;10.57;;;15.20;99.90;;;;;;6089636;23;20433;-84
2021/07/09 01:37:41;;;;;;;11.00;10.00;;;15.20;99.90;;;;;;6089187;23;20440;-83
2021/07/09 01:40:12;;;;;;;10.13;9.23;;;15.20;99.90;;;;;;6089413;23;20418;-85
2021/07/09 01:42:39;;;;;;;10.47;9.50;;;15.20;99.90;;;;;;6089429;23;20481;-83
2021/07/09 01:45:07;;;;;;;9.40;8.30;;;15.20;99.90;;;;;;6089799;23;20492;-83
2021/07/09 01:47:34;;;;;;;7.50;6.80;;;15.20;99.90;;;;;;6089712;23;20442;-84
2021/07/09 01:50:05;;;;;;;9.07;8.13;;;15.10;99.90;;;;;;6089350;23;20500;-84
2021/07/09 01:52:32;;;;;;;7.00;6.40;;;15.10;99.90;;;;;;6090344;23;20493;-84
2021/07/09 01:55:00;;;;;;;9.97;9.20;;;15.10;99.90;;;;;;6090070;23;20481;-86
2021/07/09 01:57:28;;;;;;;6.70;6.20;;;15.10;99.90;;;;;;6090106;23;20446;-86
2021/07/09 01:59:55;;;;;;;7.43;6.83;;;15.10;99.90;;;;;;6089988;23;20417;-83
2021/07/09 02:02:23;;;;;;;8.60;7.90;;;15.00;99.90;;;;;;6089437;23;20469;-84
2021/07/09 02:04:52;;;;;;;7.90;7.20;;;15.10;99.90;;;;;;6090081;23;20496;-85
2021/07/09 02:07:20;;;;;;;6.27;5.77;;;15.10;99.90;;;;;;6085977;23;20429;-85
2021/07/09 02:09:49;;;;;;;6.60;6.00;;;15.10;99.90;;;;;;6078937;23;20417;-86
2021/07/09 02:12:18;;;;;;;6.50;6.00;;;15.10;99.90;;;;;;6079885;23;20425;-86
2021/07/09 02:14:47;;;;;;;7.57;7.07;;;15.00;99.90;;;;;;6079882;23;20447;-86
2021/07/09 02:17:17;;;;;;;5.83;5.37;;;15.10;99.90;;;;;;6080345;23;20482;-86
2021/07/09 02:19:45;;;;;;;6.17;5.73;;;15.10;99.90;;;;;;6079364;23;20847;-86
2021/07/09 02:22:13;;;;;;;6.60;6.10;;;15.10;99.90;;;;;;6078384;23;20477;-86
2021/07/09 02:24:42;;;;;;;7.70;7.10;;;15.00;99.90;;;;;;6079004;23;20420;-86
2021/07/09 02:27:09;;;;;;;6.80;6.20;;;15.00;99.90;;;;;;6078596;23;20512;-86
2021/07/09 02:29:37;;;;;;;6.57;5.97;;;15.00;99.90;;;;;;6078671;23;20485;-86
2021/07/09 02:32:08;;;;;;;6.70;6.17;;;15.00;99.90;;;;;;6077463;23;20941;-86
2021/07/09 02:34:38;;;;;;;7.70;6.90;;;15.00;99.90;;;;;;6077913;23;20423;-86
2021/07/09 02:37:09;;;;;;;6.90;6.30;;;15.00;99.90;;;;;;6078478;23;20428;-86
2021/07/09 02:39:37;;;;;;;9.27;6.90;;;14.90;99.90;;;;;;6077260;23;20437;-86
2021/07/09 02:42:05;;;;;;;7.10;6.40;;;14.90;99.90;;;;;;6076996;23;20435;-86
2021/07/09 02:44:32;;;;;;;7.63;6.47;;;14.90;99.90;;;;;;6075760;23;20441;-86
2021/07/09 02:47:04;;;;;;;6.20;5.70;;;15.00;99.90;;;;;;6077537;23;20437;-85
2021/07/09 02:49:32;;;;;;;6.10;5.60;;;14.90;99.90;;;;;;6077147;23;20398;-86
2021/07/09 02:51:59;;;;;;;8.20;7.50;;;14.90;99.90;;;;;;6077434;23;20441;-86
2021/07/09 02:54:26;;;;;;;6.87;6.30;;;14.90;99.90;;;;;;6078210;23;20497;-86
2021/07/09 02:56:53;;;;;;;8.50;6.90;;;14.90;99.90;;;;;;6078044;23;20418;-86
2021/07/09 02:59:20;;;;;;;6.00;5.53;;;15.00;99.90;;;;;;6078099;23;20512;-86
2021/07/09 03:01:48;;;;;;;7.20;5.93;;;14.90;99.90;;;;;;6079243;23;20516;-85
2021/07/09 03:04:15;;;;;;;7.77;6.27;;;14.90;99.90;;;;;;6078454;23;20505;-86
2021/07/09 03:10:14;;;;;;;6.07;5.53;;;14.90;99.90;;;;;;5935369;24;20609;-85
2021/07/09 03:53:47;;;;;;;;;;;;;;;;;;;;;
2021/07/09 04:38:24;;;;;;;;;;;;;;;;;;;;;
2021/07/09 04:57:58;;;;;;;;;;;;;;;;;;;;;
2021/07/09 05:06:52;;;;;;;5.07;4.63;;;14.80;99.90;;;;;;6024062;23;20457;-84
2021/07/09 05:13:00;;;;;;;5.57;5.17;;;14.80;99.90;;;;;;5851276;23;20489;-87
2021/07/09 05:19:01;;;;;;;5.20;3.70;;;15.00;99.90;;;;;;6071147;23;20472;-87
2021/07/09 05:28:01;;;;;;;5.70;5.30;;;14.90;99.90;;;;;;6025004;23;20401;-87
2021/07/09 05:31:04;;;;;;;;;;;;;;;;;;;;;
2021/07/09 05:40:44;;;;;;;6.00;5.50;;;14.80;99.90;;;;;;6053071;23;20488;-85
2021/07/09 05:46:46;;;;;;;6.10;5.60;;;14.70;99.90;;;;;;6074618;23;20413;-87
2021/07/09 05:50:21;;;;;;;5.87;5.27;;;14.80;99.90;;;;;;6071804;23;20413;-86
2021/07/09 05:53:07;;;;;;;4.97;4.50;;;14.80;99.90;;;;;;6084032;23;20776;-86
2021/07/09 05:55:41;;;;;;;5.47;4.97;;;14.80;99.90;;;;;;6081805;23;20391;-85
2021/07/09 05:58:18;;;;;;;6.53;6.00;;;14.70;99.90;;;;;;6079829;23;20428;-86
2021/07/09 06:01:23;;;;;;;5.93;5.20;;;14.70;99.90;;;;;;6086615;23;20431;-86
2021/07/09 06:04:10;;;;;;;8.23;6.60;;;14.70;99.90;;;;;;6089126;23;20433;-87
2021/07/09 06:07:12;;;;;;;;;;;;;;;;;;;;;
2021/07/09 06:10:11;;;;;;;6.30;5.80;;;14.80;99.90;;;;;;6093246;23;20464;-87
2021/07/09 06:12:56;;;;;;;7.03;6.13;;;14.90;99.90;;;;;;6093708;23;20460;-87
2021/07/09 06:26:09;;;;;;;7.97;7.17;;;14.90;99.90;;;;;;6071185;23;20509;-85
2021/07/09 06:28:55;;;;;;;7.03;6.43;;;14.90;99.90;;;;;;6077747;23;20466;-86
2021/07/09 06:31:27;;;;;;;8.30;7.50;;;14.90;99.90;;;;;;6079936;23;20448;-85
2021/07/09 06:34:01;;;;;;;7.20;6.60;;;14.90;99.90;;;;;;6077504;23;20394;-88
2021/07/09 06:36:39;;;;;;;7.40;6.90;;;14.90;99.90;;;;;;6074933;23;20433;-86
2021/07/09 06:39:06;;;;;;;7.97;7.17;;;15.00;99.90;;;;;;6075720;23;20762;-85
2021/07/09 06:41:35;;;;;;;8.37;7.70;;;15.00;99.90;;;;;;6074148;23;20440;-85
2021/07/09 06:44:02;;;;;;;8.10;7.40;;;15.10;99.90;;;;;;6073471;23;20782;-86
2021/07/09 06:46:28;;;;;;;9.80;9.07;;;15.20;99.90;;;;;;6074201;23;20417;-85
2021/07/09 06:48:58;;;;;;;10.53;7.60;;;15.20;99.90;;;;;;6073487;23;20405;-85
2021/07/09 06:51:25;;;;;;;9.33;8.50;;;15.40;99.90;;;;;;6072212;23;20423;-85
2021/07/09 06:53:51;;;;;;;8.20;7.60;;;15.50;99.90;;;;;;6072205;23;20422;-87
2021/07/09 06:56:18;;;;;;;8.27;7.67;;;15.60;99.90;;;;;;6072328;23;20440;-85
2021/07/09 06:58:45;;;;;;;7.10;6.40;;;15.70;99.90;;;;;;6072048;23;20420;-86
2021/07/09 07:01:12;;;;;;;6.60;6.00;;;15.80;99.90;;;;;;6072672;23;20414;-85
2021/07/09 07:03:38;;;;;;;7.47;6.77;;;15.90;99.90;;;;;;6074215;23;20441;-85
2021/07/09 07:06:08;;;;;;;6.13;5.63;;;16.00;99.90;;;;;;6077064;23;20413;-85
2021/07/09 07:08:34;;;;;;;6.30;5.87;;;16.20;99.90;;;;;;6074068;23;20437;-85
2021/07/09 07:11:01;;;;;;;7.37;6.80;;;16.30;99.90;;;;;;6074170;23;20420;-86
2021/07/09 07:13:28;;;;;;;8.47;7.67;;;16.30;99.90;;;;;;6073201;23;20433;-86
2021/07/09 07:15:56;;;;;;;6.97;6.37;;;16.50;99.90;;;;;;6073511;23;20417;-84
2021/07/09 07:18:23;;;;;;;7.40;6.77;;;16.50;99.90;;;;;;6070157;23;20524;-86
2021/07/09 07:20:56;;;;;;;7.80;7.20;;;16.70;99.90;;;;;;6071221;23;20925;-86
2021/07/09 07:23:27;;;;;;;8.47;7.77;;;16.60;99.90;;;;;;6076892;23;21012;-86
2021/07/09 07:25:54;;;;;;;8.13;7.43;;;16.70;99.90;;;;;;6081186;23;20406;-85
2021/07/09 07:28:22;;;;;;;7.43;6.83;;;16.70;99.90;;;;;;6084265;23;20482;-86
2021/07/09 07:30:50;;;;;;;8.33;7.63;;;16.80;99.90;;;;;;6087937;23;20442;-86
2021/07/09 07:33:20;;;;;;;7.40;6.90;;;16.90;99.90;;;;;;6091422;23;20451;-86
2021/07/09 07:36:27;;;;;;;8.47;7.80;;;17.00;99.90;;;;;;6093066;23;20448;-86
2021/07/09 07:39:41;;;;;;;;;;;;;;;;;;;;;
2021/07/09 07:45:16;;;;;;;8.27;7.60;;;17.50;99.90;;;;;;6087798;23;20473;-86
2021/07/09 08:02:04;;;;;;;7.93;7.37;;;17.60;99.90;;;;;;5847287;24;20548;-87
2021/07/09 08:29:04;;;;;;;6.13;5.60;;;18.50;99.90;;;;;;5716473;25;20420;-84
2021/07/09 13:10:51;;;;;;;;;;;;;;;;;;;;;
2021/07/09 13:50:00;;;;;;;7.30;5.87;;;23.90;92.90;;;;;;5761808;24;20472;-84
2021/07/09 14:09:47;;;;;;;3.30;3.10;;;22.10;92.50;;;;;;5915535;24;20422;-84
2021/07/09 14:12:29;;;;;;;2.60;2.50;;;21.90;92.30;;;;;;6112729;23;20436;-86
2021/07/09 14:15:28;;;;;;;;;;;;;;;;;;;;;
2021/07/09 14:18:29;;;;;;;2.93;2.73;;;22.00;92.00;;;;;;6113765;23;20417;-83
2021/07/09 14:21:18;;;;;;;3.40;3.10;;;22.20;92.60;;;;;;6117385;23;20398;-86
2021/07/09 14:23:52;;;;;;;3.73;3.53;;;22.10;92.30;;;;;;6110738;23;20459;-85
2021/07/09 14:26:31;;;;;;;3.57;3.37;;;22.00;93.30;;;;;;6116939;23;20384;-85
2021/07/09 14:30:02;;;;;;;;;;;;;;;;;;;;;
2021/07/09 14:39:47;;;;;;;4.03;3.83;;;21.90;95.40;;;;;;5841421;24;20426;-86
2021/07/09 17:43:23;;;;;;;3.93;3.73;;;23.60;87.70;;;;;;5703049;25;20427;-85
2021/07/09 17:45:52;;;;;;;4.47;3.90;;;23.30;89.80;;;;;;5817026;24;20504;-85
2021/07/09 17:48:19;;;;;;;4.27;3.97;;;23.10;90.20;;;;;;5910691;24;20761;-84
2021/07/09 17:50:46;;;;;;;4.53;4.23;;;22.80;90.50;;;;;;6020403;23;20430;-84
2021/07/09 17:53:13;;;;;;;4.93;4.47;;;22.40;91.10;;;;;;6104301;23;20817;-84
2021/07/09 17:55:40;;;;;;;4.80;4.50;;;22.10;91.50;;;;;;6090205;23;20419;-87
2021/07/09 17:58:08;;;;;;;4.40;4.10;;;22.00;92.30;;;;;;6087147;23;20447;-84
2021/07/09 18:00:37;;;;;;;4.70;4.40;;;21.90;92.80;;;;;;6082878;23;20420;-86
2021/07/09 18:03:04;;;;;;;5.63;5.23;;;21.70;92.90;;;;;;6078851;23;20454;-84
2021/07/09 18:05:31;;;;;;;4.80;4.50;;;21.50;93.50;;;;;;6074924;23;20451;-84
2021/07/09 18:07:58;;;;;;;4.90;4.60;;;21.50;93.80;;;;;;6074719;23;20407;-86
2021/07/09 18:10:25;;;;;;;4.43;4.13;;;21.30;93.90;;;;;;6074369;23;20415;-85
2021/07/09 18:12:51;;;;;;;7.57;6.97;;;21.00;94.40;;;;;;6073740;23;21035;-85
2021/07/09 18:15:18;;;;;;;7.27;6.67;;;21.00;94.50;;;;;;6073858;23;20415;-86
2021/07/09 18:17:48;;;;;;;5.03;4.73;;;20.60;94.70;;;;;;6073962;23;20417;-85
2021/07/09 18:20:15;;;;;;;6.93;6.30;;;20.50;95.00;;;;;;6073564;23;20409;-85
2021/07/09 18:22:43;;;;;;;5.30;4.90;;;20.30;95.50;;;;;;6073700;23;20444;-85
2021/07/09 18:25:10;;;;;;;9.53;8.80;;;20.10;95.90;;;;;;6074605;23;20953;-86
2021/07/09 18:27:37;;;;;;;6.43;5.93;;;20.10;96.20;;;;;;6074551;23;20508;-86
2021/07/09 18:30:06;;;;;;;8.83;8.20;;;20.00;96.40;;;;;;6072352;23;20910;-86
2021/07/09 18:32:35;;;;;;;6.60;5.50;;;19.80;96.80;;;;;;6076116;23;20745;-85
2021/07/09 18:35:04;;;;;;;4.77;4.37;;;19.80;97.50;;;;;;6085388;23;20419;-85
2021/07/09 18:37:33;;;;;;;4.80;4.40;;;19.70;97.60;;;;;;6085328;23;20477;-85
2021/07/09 18:40:01;;;;;;;6.60;4.87;;;19.60;97.70;;;;;;6083852;23;20481;-86
2021/07/09 18:42:29;;;;;;;4.70;4.30;;;19.60;98.00;;;;;;6081397;23;20516;-84
2021/07/09 18:45:07;;;;;;;;;;;;;;;;;;;;;
2021/07/09 20:02:46;;;;;;;5.80;5.30;;;19.00;99.90;;;;;;5894444;23;20239;-86
2021/07/09 20:05:15;;;;;;;5.93;5.40;;;19.00;99.90;;;;;;6075117;23;20188;-86
2021/07/09 20:07:42;;;;;;;5.90;5.40;;;19.00;99.90;;;;;;6075101;23;20408;-83
2021/07/09 20:10:15;;;;;;;5.70;5.20;;;18.90;99.90;;;;;;6075261;23;20427;-84
2021/07/09 20:12:44;;;;;;;5.50;5.10;;;18.90;99.90;;;;;;6075607;23;21000;-85
2021/07/09 20:15:12;;;;;;;7.47;6.00;;;18.80;99.90;;;;;;6075650;23;20419;-84
2021/07/09 20:17:42;;;;;;;5.53;5.13;;;18.80;99.90;;;;;;6074809;23;20420;-84
2021/07/09 20:20:10;;;;;;;5.43;4.97;;;18.60;99.90;;;;;;6075368;23;20399;-84
2021/07/09 20:22:37;;;;;;;5.73;5.33;;;18.50;99.90;;;;;;6075405;23;20779;-84
2021/07/09 20:25:11;;;;;;;5.73;5.33;;;18.50;99.90;;;;;;6075211;23;20506;-84
2021/07/09 20:27:37;;;;;;;5.10;4.80;;;18.40;99.90;;;;;;6075113;23;20399;-84
2021/07/09 20:30:07;;;;;;;6.13;5.63;;;18.40;99.90;;;;;;6075354;23;20420;-84
2021/07/09 20:32:34;;;;;;;6.73;6.13;;;18.40;99.90;;;;;;6074614;23;20439;-84
2021/07/09 20:35:03;;;;;;;6.40;5.63;;;18.30;99.90;;;;;;6075526;23;20416;-84
2021/07/09 20:37:30;;;;;;;6.70;6.20;;;18.30;99.90;;;;;;6075415;23;20417;-84
2021/07/09 20:39:56;;;;;;;6.67;6.17;;;18.20;99.90;;;;;;6074663;23;20424;-84
2021/07/09 20:42:23;;;;;;;8.97;8.03;;;18.20;99.90;;;;;;6078512;23;20428;-84
2021/07/09 20:44:50;;;;;;;7.83;7.23;;;18.10;99.90;;;;;;6079843;23;20415;-84
2021/07/09 20:47:17;;;;;;;10.30;9.50;;;18.10;99.90;;;;;;6079851;23;20611;-85
2021/07/09 20:49:44;;;;;;;11.80;10.90;;;18.00;99.90;;;;;;6078493;23;20445;-83
2021/07/09 20:52:12;;;;;;;10.50;9.70;;;18.00;99.90;;;;;;6079639;23;20443;-85
2021/07/09 20:54:39;;;;;;;9.87;8.87;;;17.90;99.90;;;;;;6075843;23;20446;-84
2021/07/09 20:57:09;;;;;;;11.60;10.50;;;17.80;99.90;;;;;;6076319;23;20492;-86
2021/07/09 20:59:36;;;;;;;9.90;9.20;;;17.80;99.90;;;;;;6077681;23;20420;-86
2021/07/09 21:02:06;;;;;;;10.47;9.57;;;17.80;99.90;;;;;;6077280;23;20521;-85
2021/07/09 21:04:33;;;;;;;9.47;8.57;;;17.80;99.90;;;;;;6077980;23;20406;-86
2021/07/09 21:06:59;;;;;;;10.67;9.97;;;17.70;99.90;;;;;;6077580;23;20450;-86
2021/07/09 21:09:27;;;;;;;9.07;8.37;;;17.70;99.90;;;;;;6078214;23;20425;-86
2021/07/09 21:11:54;;;;;;;11.03;10.13;;;17.60;99.90;;;;;;6077658;23;20434;-86
2021/07/09 21:14:21;;;;;;;9.40;8.70;;;17.60;99.90;;;;;;6078237;23;20831;-86
2021/07/09 21:16:49;;;;;;;10.60;9.70;;;17.50;99.90;;;;;;6078749;23;20485;-86
2021/07/09 21:19:17;;;;;;;11.17;10.27;;;17.50;99.90;;;;;;6077807;23;20430;-86
2021/07/09 21:21:50;;;;;;;17.80;16.10;;;17.50;99.90;;;;;;6077118;23;20491;-86
2021/07/09 21:24:20;;;;;;;13.63;12.33;;;17.50;99.90;;;;;;6076472;23;20402;-85
2021/07/09 21:26:51;;;;;;;13.53;12.33;;;17.40;99.90;;;;;;6076876;23;20450;-86
2021/07/09 21:29:18;;;;;;;12.67;11.60;;;17.40;99.90;;;;;;6077441;23;20407;-86
2021/07/09 21:31:57;;;;;;;13.70;12.40;;;17.40;99.90;;;;;;6077699;23;20441;-86
2021/07/09 22:31:40;;;;;;;10.50;9.70;;;16.70;99.90;;;;;;5899964;24;20409;-85
